Time;durP1;ratioP1;P1;durP2;ratioP2;P2;SDS_P1;SDS_P2;PMS_P1;PMS_P2;Temp;Humidity;BMP_temperature;BMP_pressure;BME280_temperature;BME280_humidity;BME280_pressure;Samples;Min_cycle;Max_cycle;Signal;HPM_P1;HPM_P2
2023/08/20 00:00:04;;;;;;;25.08;14.63;;;17.60;99.30;;;;;;5022685;28;20022;-70
2023/08/20 00:02:33;;;;;;;28.45;13.38;;;17.50;99.10;;;;;;5036456;28;20029;-70
2023/08/20 00:04:58;;;;;;;25.02;13.68;;;17.50;99.20;;;;;;5030609;28;20039;-70
2023/08/20 00:07:24;;;;;;;26.48;14.38;;;17.40;99.20;;;;;;5025961;28;20030;-71
2023/08/20 00:09:50;;;;;;;32.20;15.88;;;17.40;99.30;;;;;;5031945;28;20493;-70
2023/08/20 00:12:15;;;;;;;27.38;15.45;;;17.40;99.50;;;;;;5040829;28;20377;-70
2023/08/20 00:15:06;;;;;;;29.23;16.35;;;17.40;99.60;;;;;;5038459;28;20496;-71
2023/08/20 00:17:33;;;;;;;36.53;16.15;;;17.40;99.80;;;;;;5032777;28;20029;-70
2023/08/20 00:19:59;;;;;;;33.40;17.45;;;17.40;99.80;;;;;;5033328;28;20048;-70
2023/08/20 00:22:25;;;;;;;41.55;16.88;;;17.30;99.70;;;;;;5030025;28;20041;-70
2023/08/20 00:24:52;;;;;;;28.77;16.05;;;17.10;99.60;;;;;;5024587;28;20054;-70
2023/08/20 00:27:18;;;;;;;37.50;16.42;;;17.00;99.70;;;;;;5032444;28;20044;-70
2023/08/20 00:29:43;;;;;;;29.80;15.25;;;17.00;99.60;;;;;;5018778;28;20041;-70
2023/08/20 00:32:09;;;;;;;32.55;15.90;;;17.00;99.50;;;;;;5030737;28;20057;-70
2023/08/20 00:34:34;;;;;;;34.45;15.57;;;17.00;99.50;;;;;;5033555;28;20056;-70
2023/08/20 00:37:02;;;;;;;32.38;15.93;;;17.10;99.60;;;;;;5026021;28;20810;-70
2023/08/20 00:39:28;;;;;;;35.15;17.08;;;17.20;99.60;;;;;;5031321;28;20548;-70
2023/08/20 00:41:53;;;;;;;36.03;17.77;;;17.30;99.70;;;;;;5034490;28;20124;-71
2023/08/20 00:44:19;;;;;;;40.67;18.27;;;17.30;99.60;;;;;;5026202;28;20507;-70
2023/08/20 00:46:45;;;;;;;36.65;19.48;;;17.40;99.70;;;;;;5027354;28;20067;-70
2023/08/20 00:49:10;;;;;;;43.42;20.02;;;17.50;99.80;;;;;;5025047;28;20022;-70
2023/08/20 00:51:36;;;;;;;42.08;20.95;;;17.60;99.90;;;;;;5029515;28;20466;-70
2023/08/20 00:54:03;;;;;;;38.63;20.52;;;17.70;99.90;;;;;;5026870;28;20482;-70
2023/08/20 00:56:29;;;;;;;40.60;19.45;;;17.70;99.90;;;;;;5032203;28;20041;-70
2023/08/20 00:58:55;;;;;;;47.30;21.00;;;17.80;99.90;;;;;;5021618;28;20477;-71
2023/08/20 01:01:21;;;;;;;41.08;20.02;;;17.90;99.90;;;;;;5034485;28;20460;-70
2023/08/20 01:03:47;;;;;;;41.30;19.35;;;17.90;99.80;;;;;;5027989;28;20038;-70
2023/08/20 01:06:43;;;;;;;50.95;21.92;;;17.90;99.80;;;;;;5031624;28;20112;-70
2023/08/20 01:09:41;;;;;;;47.33;20.60;;;18.00;99.80;;;;;;5010879;28;20111;-71
2023/08/20 01:12:08;;;;;;;42.92;20.20;;;17.90;99.80;;;;;;5005104;28;20128;-71
2023/08/20 01:14:34;;;;;;;46.20;21.27;;;18.00;99.80;;;;;;5023675;28;20033;-70
2023/08/20 01:16:59;;;;;;;54.90;24.63;;;18.00;99.80;;;;;;5027253;28;20037;-70
2023/08/20 01:19:25;;;;;;;61.33;24.75;;;18.00;99.80;;;;;;5044154;28;20052;-70
2023/08/20 01:22:17;;;;;;;58.50;25.33;;;18.00;99.90;;;;;;5033734;28;20037;-70
2023/08/20 01:25:11;;;;;;;62.40;26.30;;;18.00;99.80;;;;;;5026840;28;20076;-70
2023/08/20 01:27:49;;;;;;;49.15;25.58;;;18.00;99.90;;;;;;5040582;28;20045;-70
2023/08/20 01:30:15;;;;;;;62.60;25.80;;;18.00;99.80;;;;;;5022706;28;20029;-70
2023/08/20 01:32:42;;;;;;;60.72;26.95;;;18.10;99.90;;;;;;5033798;28;20041;-70
2023/08/20 01:35:13;;;;;;;58.88;26.27;;;18.00;99.90;;;;;;5035090;28;20361;-71
2023/08/20 01:37:39;;;;;;;61.42;24.48;;;18.10;99.90;;;;;;5025149;28;20454;-70
2023/08/20 01:40:07;;;;;;;54.72;24.15;;;18.00;99.90;;;;;;5030863;28;20033;-70
2023/08/20 01:42:32;;;;;;;56.58;24.75;;;18.10;99.90;;;;;;5043823;28;20045;-70
2023/08/20 01:44:58;;;;;;;58.63;24.58;;;18.10;99.90;;;;;;5025119;28;20038;-70
2023/08/20 01:47:23;;;;;;;64.50;24.70;;;18.00;99.90;;;;;;5041884;28;20021;-70
2023/08/20 01:49:49;;;;;;;67.97;26.27;;;18.00;99.90;;;;;;5021943;28;20401;-70
2023/08/20 01:52:14;;;;;;;61.47;24.50;;;18.00;99.90;;;;;;5031345;28;20085;-70
2023/08/20 01:54:40;;;;;;;82.53;26.08;;;18.00;99.90;;;;;;5035376;28;20025;-71
2023/08/20 01:57:05;;;;;;;60.75;24.10;;;18.00;99.90;;;;;;5027436;28;20363;-71
2023/08/20 01:59:31;;;;;;;63.45;23.38;;;18.00;99.90;;;;;;5034303;28;20044;-70
2023/08/20 02:01:56;;;;;;;50.20;24.83;;;18.00;99.90;;;;;;5030270;28;20134;-70
2023/08/20 02:04:21;;;;;;;56.33;25.42;;;18.00;99.90;;;;;;5026584;28;20025;-70
2023/08/20 02:06:47;;;;;;;49.35;24.08;;;18.00;99.90;;;;;;5018696;28;20078;-70
2023/08/20 02:09:12;;;;;;;46.13;24.08;;;18.00;99.90;;;;;;5025529;28;20466;-71
2023/08/20 02:11:38;;;;;;;60.42;25.17;;;18.00;99.90;;;;;;5036865;28;20040;-70
2023/08/20 02:14:03;;;;;;;52.38;25.58;;;18.00;99.90;;;;;;5027886;28;20053;-70
2023/08/20 02:16:29;;;;;;;60.72;24.50;;;18.00;99.90;;;;;;5022013;28;20046;-71
2023/08/20 02:18:54;;;;;;;48.88;24.67;;;18.00;99.90;;;;;;5034353;28;20028;-70
2023/08/20 02:21:20;;;;;;;58.65;24.40;;;18.00;99.90;;;;;;5031073;28;20367;-70
2023/08/20 02:23:45;;;;;;;47.85;24.00;;;17.90;99.90;;;;;;5020355;28;20108;-71
2023/08/20 02:26:11;;;;;;;83.95;25.75;;;18.00;99.90;;;;;;5028319;28;20535;-70
2023/08/20 02:28:37;;;;;;;60.97;23.92;;;17.90;99.90;;;;;;5035316;28;20059;-70
2023/08/20 02:31:06;;;;;;;53.17;23.67;;;17.90;99.90;;;;;;5027735;28;20034;-71
2023/08/20 02:33:31;;;;;;;57.05;24.67;;;18.00;99.90;;;;;;5020741;28;20030;-70
2023/08/20 02:36:02;;;;;;;75.22;25.88;;;17.90;99.90;;;;;;5022434;28;20099;-71
2023/08/20 02:38:28;;;;;;;69.28;27.33;;;17.90;99.90;;;;;;5029439;28;20469;-70
2023/08/20 02:40:53;;;;;;;61.10;23.73;;;17.90;99.90;;;;;;5030900;28;20030;-70
2023/08/20 02:43:19;;;;;;;62.45;26.02;;;17.90;99.90;;;;;;5026764;28;20042;-71
2023/08/20 02:45:45;;;;;;;50.78;24.38;;;17.80;99.90;;;;;;5023617;28;20087;-70
2023/08/20 02:48:11;;;;;;;72.40;25.15;;;17.80;99.90;;;;;;5029362;28;20037;-70
2023/08/20 02:50:36;;;;;;;46.95;24.05;;;17.70;99.90;;;;;;5025622;28;20044;-70
2023/08/20 02:53:03;;;;;;;47.45;24.42;;;17.60;99.90;;;;;;5025899;28;20412;-70
2023/08/20 02:55:29;;;;;;;77.95;24.25;;;17.60;99.90;;;;;;5030429;28;20029;-70
2023/08/20 02:57:55;;;;;;;99.57;23.63;;;17.50;99.90;;;;;;5021275;28;20048;-70
2023/08/20 03:00:20;;;;;;;113.00;26.08;;;17.50;99.90;;;;;;5022638;28;20032;-70
2023/08/20 03:02:46;;;;;;;52.13;24.73;;;17.50;99.90;;;;;;5039528;28;20111;-71
2023/08/20 03:05:11;;;;;;;102.35;24.33;;;17.50;99.90;;;;;;5027879;28;20036;-70
2023/08/20 03:07:36;;;;;;;119.75;26.10;;;17.50;99.90;;;;;;5023360;28;20044;-71
2023/08/20 03:10:02;;;;;;;143.18;26.02;;;17.50;99.90;;;;;;5027078;28;20347;-70
2023/08/20 03:12:28;;;;;;;161.88;26.67;;;17.50;99.90;;;;;;5030622;28;20033;-70
2023/08/20 03:14:54;;;;;;;130.27;24.75;;;17.40;99.90;;;;;;5021789;28;20467;-70
2023/08/20 03:17:20;;;;;;;111.90;20.17;;;17.40;99.90;;;;;;5027501;28;20083;-70
2023/08/20 03:19:59;;;;;;;99.95;19.65;;;17.30;99.90;;;;;;5031026;28;20026;-70
2023/08/20 03:22:26;;;;;;;132.70;21.15;;;17.20;99.90;;;;;;5031228;28;20088;-70
2023/08/20 03:24:53;;;;;;;77.43;20.60;;;17.20;99.90;;;;;;5026180;28;20048;-71
2023/08/20 03:27:18;;;;;;;65.88;19.15;;;17.10;99.90;;;;;;5035309;28;20045;-71
2023/08/20 03:29:44;;;;;;;131.80;23.20;;;17.10;99.90;;;;;;5042156;28;20509;-70
2023/08/20 03:32:10;;;;;;;112.18;23.17;;;17.10;99.90;;;;;;5032483;28;20025;-71
2023/08/20 03:34:36;;;;;;;45.90;19.88;;;17.10;99.90;;;;;;5031543;28;20037;-71
2023/08/20 03:37:02;;;;;;;138.77;23.85;;;17.10;99.90;;;;;;5029520;28;20493;-70
2023/08/20 03:39:28;;;;;;;130.23;22.33;;;17.00;99.90;;;;;;5035072;28;20431;-70
2023/08/20 03:41:53;;;;;;;133.10;22.55;;;17.00;99.90;;;;;;5031138;28;20041;-70
2023/08/20 03:44:19;;;;;;;77.18;19.08;;;17.00;99.90;;;;;;5031268;28;20056;-70
2023/08/20 03:46:45;;;;;;;51.17;18.65;;;17.00;99.90;;;;;;5032912;28;20033;-70
2023/08/20 03:49:10;;;;;;;109.88;22.33;;;17.00;99.90;;;;;;5027333;28;20386;-70
2023/08/20 03:51:36;;;;;;;69.70;19.25;;;16.90;99.90;;;;;;5027412;28;20132;-70
2023/08/20 03:54:02;;;;;;;50.47;19.25;;;16.90;99.90;;;;;;5034816;28;20182;-71
2023/08/20 03:56:27;;;;;;;88.75;19.15;;;17.00;99.90;;;;;;5033202;28;20037;-70
2023/08/20 03:58:53;;;;;;;37.53;18.00;;;17.00;99.90;;;;;;5030179;28;20043;-70
2023/08/20 04:01:19;;;;;;;59.28;17.13;;;16.90;99.90;;;;;;5031456;28;20045;-70
2023/08/20 04:03:46;;;;;;;84.63;18.17;;;16.90;99.90;;;;;;5038661;28;20473;-70
2023/08/20 04:06:11;;;;;;;136.18;20.55;;;17.00;99.90;;;;;;5023913;28;20733;-70
2023/08/20 04:08:37;;;;;;;65.93;16.70;;;16.90;99.90;;;;;;5033588;28;20045;-71
2023/08/20 04:11:03;;;;;;;43.33;17.40;;;16.90;99.90;;;;;;5035868;28;20385;-71
2023/08/20 04:13:29;;;;;;;42.25;17.08;;;16.90;99.90;;;;;;5039838;28;20033;-70
2023/08/20 04:15:55;;;;;;;97.07;18.42;;;16.90;99.90;;;;;;5028155;28;20029;-70
2023/08/20 04:18:20;;;;;;;66.88;17.23;;;16.80;99.90;;;;;;5036978;28;20031;-71
2023/08/20 04:20:46;;;;;;;58.13;17.38;;;16.80;99.90;;;;;;5037015;28;20038;-70
2023/08/20 04:23:11;;;;;;;76.95;18.27;;;16.80;99.90;;;;;;5034322;28;20048;-71
2023/08/20 04:25:37;;;;;;;90.25;18.67;;;16.80;99.90;;;;;;5035695;28;20057;-71
2023/08/20 04:28:02;;;;;;;112.45;22.17;;;16.90;99.90;;;;;;5029368;28;20516;-69
2023/08/20 04:30:28;;;;;;;33.65;16.27;;;16.90;99.90;;;;;;5025767;28;20026;-69
2023/08/20 04:32:53;;;;;;;56.22;19.17;;;16.90;99.90;;;;;;5030895;28;20036;-70
2023/08/20 04:35:19;;;;;;;59.05;17.25;;;16.90;99.90;;;;;;5038164;28;20082;-69
2023/08/20 04:37:44;;;;;;;70.35;18.30;;;16.90;99.90;;;;;;5033000;28;20389;-69
2023/08/20 04:40:10;;;;;;;32.80;15.88;;;16.90;99.90;;;;;;5025661;28;20032;-69
2023/08/20 04:42:36;;;;;;;84.97;19.98;;;16.90;99.90;;;;;;5032942;28;20457;-69
2023/08/20 04:45:01;;;;;;;41.97;17.90;;;16.80;99.90;;;;;;5027452;28;20056;-69
2023/08/20 04:47:27;;;;;;;64.85;17.13;;;16.90;99.90;;;;;;5031019;28;20030;-69
2023/08/20 04:49:52;;;;;;;75.55;17.83;;;16.90;99.90;;;;;;5028815;28;20064;-69
2023/08/20 04:52:20;;;;;;;35.80;16.40;;;16.80;99.90;;;;;;5027365;28;20389;-69
2023/08/20 04:54:46;;;;;;;84.40;15.63;;;17.00;99.90;;;;;;5033594;28;20025;-69
2023/08/20 04:57:11;;;;;;;85.28;14.35;;;16.90;99.90;;;;;;5024015;28;20091;-69
2023/08/20 04:59:37;;;;;;;122.65;15.52;;;16.90;99.90;;;;;;5033641;28;20469;-70
2023/08/20 05:02:02;;;;;;;107.47;14.50;;;16.80;99.90;;;;;;5024216;28;20025;-69
2023/08/20 05:04:28;;;;;;;56.05;13.48;;;16.80;99.90;;;;;;5036058;28;20082;-69
2023/08/20 05:06:53;;;;;;;33.42;13.10;;;16.80;99.90;;;;;;5029786;28;20389;-69
2023/08/20 05:09:19;;;;;;;72.32;13.55;;;16.80;99.90;;;;;;5033627;28;20045;-69
2023/08/20 05:11:44;;;;;;;93.35;13.68;;;16.80;99.90;;;;;;5025059;28;20394;-69
2023/08/20 05:14:10;;;;;;;80.30;13.68;;;16.80;99.90;;;;;;5026502;28;20044;-70
2023/08/20 05:16:35;;;;;;;84.75;12.10;;;16.70;99.90;;;;;;5027115;28;20033;-69
2023/08/20 05:19:00;;;;;;;35.67;12.23;;;16.70;99.90;;;;;;5033538;28;20045;-70
2023/08/20 05:21:26;;;;;;;37.72;12.00;;;16.80;99.90;;;;;;5035587;28;20045;-69
2023/08/20 05:23:51;;;;;;;22.27;10.27;;;16.90;99.90;;;;;;5026667;28;20038;-69
2023/08/20 05:26:17;;;;;;;35.42;9.77;;;16.80;99.90;;;;;;5028879;28;20064;-69
2023/08/20 05:28:42;;;;;;;27.85;9.55;;;16.80;99.90;;;;;;5029798;28;20037;-69
2023/08/20 05:31:08;;;;;;;29.17;9.20;;;16.90;99.90;;;;;;5027535;28;20024;-72
2023/08/20 05:33:33;;;;;;;65.05;10.68;;;16.90;99.90;;;;;;5029070;28;20584;-71
2023/08/20 05:35:59;;;;;;;33.47;9.98;;;16.80;99.60;;;;;;5035990;28;20045;-72
2023/08/20 05:38:25;;;;;;;30.15;10.27;;;17.00;99.90;;;;;;5024929;28;20037;-72
2023/08/20 05:40:50;;;;;;;42.42;11.38;;;17.00;99.90;;;;;;5033247;28;20126;-72
2023/08/20 05:43:16;;;;;;;45.95;10.77;;;17.20;99.90;;;;;;5021450;28;20037;-72
2023/08/20 05:45:42;;;;;;;46.95;10.70;;;17.30;99.80;;;;;;5029517;28;20029;-72
2023/08/20 05:48:07;;;;;;;57.22;10.93;;;17.20;99.80;;;;;;5018523;28;20036;-72
2023/08/20 05:50:33;;;;;;;48.33;10.15;;;17.20;99.80;;;;;;5029827;28;20031;-72
2023/08/20 05:52:58;;;;;;;51.83;10.43;;;17.30;99.70;;;;;;5023285;28;20394;-72
2023/08/20 05:55:24;;;;;;;54.28;9.45;;;17.30;99.70;;;;;;5031991;28;20061;-72
2023/08/20 05:57:50;;;;;;;34.45;9.70;;;17.40;99.70;;;;;;5028226;28;20026;-72
2023/08/20 06:00:17;;;;;;;41.80;9.48;;;17.50;99.80;;;;;;5027766;28;20028;-72
2023/08/20 06:02:43;;;;;;;38.35;9.35;;;17.40;99.60;;;;;;5031447;28;20071;-72
2023/08/20 06:05:09;;;;;;;55.42;9.80;;;17.50;99.70;;;;;;5026883;28;20462;-70
2023/08/20 06:07:34;;;;;;;35.05;8.70;;;17.50;99.60;;;;;;5020101;28;20022;-70
2023/08/20 06:10:00;;;;;;;27.45;8.70;;;17.50;99.50;;;;;;5024984;28;20076;-70
2023/08/20 06:12:25;;;;;;;29.77;8.27;;;17.50;99.30;;;;;;5025127;28;20381;-69
2023/08/20 06:14:51;;;;;;;22.73;7.40;;;17.50;99.20;;;;;;5030318;28;20034;-70
2023/08/20 06:17:16;;;;;;;27.50;8.02;;;17.50;99.30;;;;;;5033092;28;20040;-69
2023/08/20 06:19:42;;;;;;;24.17;8.30;;;17.40;99.10;;;;;;5024887;28;20041;-70
2023/08/20 06:22:07;;;;;;;21.55;8.20;;;17.50;99.20;;;;;;5027742;28;20052;-70
2023/08/20 06:24:33;;;;;;;17.90;7.93;;;17.60;99.40;;;;;;5029083;28;20067;-70
2023/08/20 06:26:58;;;;;;;25.60;8.10;;;17.60;99.30;;;;;;5031234;28;20064;-70
2023/08/20 06:29:24;;;;;;;23.65;8.07;;;17.70;99.00;;;;;;5024435;28;20041;-73
2023/08/20 06:31:50;;;;;;;24.95;8.77;;;17.70;98.90;;;;;;5029491;28;20049;-70
2023/08/20 06:34:16;;;;;;;11.88;8.18;;;17.90;99.10;;;;;;5027982;28;20097;-71
2023/08/20 06:36:41;;;;;;;13.20;8.70;;;18.10;99.20;;;;;;5016467;28;20120;-71
2023/08/20 06:39:07;;;;;;;12.40;8.38;;;18.00;98.70;;;;;;5031367;28;20037;-70
2023/08/20 06:41:33;;;;;;;13.38;8.55;;;18.00;98.50;;;;;;5034654;28;20040;-71
2023/08/20 06:43:58;;;;;;;13.02;8.05;;;18.00;98.50;;;;;;5023655;28;20029;-70
2023/08/20 06:46:24;;;;;;;11.70;8.02;;;18.00;98.10;;;;;;5032719;28;20052;-71
2023/08/20 06:48:49;;;;;;;10.73;7.90;;;18.20;98.30;;;;;;5024874;28;20034;-68
2023/08/20 06:51:18;;;;;;;12.63;7.55;;;18.40;98.10;;;;;;5023047;28;20029;-70
2023/08/20 06:53:44;;;;;;;13.68;8.20;;;18.30;97.60;;;;;;5038384;28;20041;-71
2023/08/20 06:56:10;;;;;;;10.32;8.13;;;18.30;97.50;;;;;;5026507;28;20504;-73
2023/08/20 06:58:37;;;;;;;13.75;8.48;;;18.30;97.40;;;;;;5027703;28;20029;-69
2023/08/20 07:01:09;;;;;;;13.25;8.60;;;18.30;97.30;;;;;;5031779;28;20036;-68
2023/08/20 07:03:38;;;;;;;12.25;9.13;;;18.20;96.90;;;;;;5030200;28;20041;-68
2023/08/20 07:06:04;;;;;;;13.27;9.48;;;18.40;97.40;;;;;;5024515;28;20042;-69
2023/08/20 07:08:30;;;;;;;12.75;8.73;;;18.60;97.70;;;;;;5022634;28;20086;-68
2023/08/20 07:10:55;;;;;;;11.90;8.90;;;18.70;97.30;;;;;;5021176;28;20082;-68
2023/08/20 07:13:22;;;;;;;14.57;8.75;;;18.70;97.10;;;;;;5031710;28;20029;-69
2023/08/20 07:15:48;;;;;;;14.15;9.52;;;18.70;96.70;;;;;;5037573;28;20037;-69
2023/08/20 07:18:14;;;;;;;13.73;8.40;;;18.80;96.50;;;;;;5030109;28;20037;-70
2023/08/20 07:20:43;;;;;;;12.32;8.73;;;18.90;96.30;;;;;;5022401;28;20121;-71
2023/08/20 07:23:10;;;;;;;14.23;9.27;;;19.00;95.80;;;;;;5030842;28;20416;-70
2023/08/20 07:25:40;;;;;;;14.00;9.68;;;19.00;95.40;;;;;;5034569;28;20071;-70
2023/08/20 07:28:06;;;;;;;12.50;8.70;;;19.10;95.40;;;;;;5047249;28;20104;-70
2023/08/20 07:30:32;;;;;;;11.38;8.38;;;19.10;95.40;;;;;;5025865;28;20080;-70
2023/08/20 07:32:58;;;;;;;11.30;8.65;;;19.30;95.50;;;;;;5037237;28;20425;-71
2023/08/20 07:35:24;;;;;;;14.73;9.35;;;19.40;95.60;;;;;;5038881;28;20469;-70
2023/08/20 07:37:49;;;;;;;14.77;8.90;;;19.50;95.10;;;;;;5029492;28;20038;-70
2023/08/20 07:40:15;;;;;;;12.85;9.20;;;19.70;94.90;;;;;;5035280;28;20040;-70
2023/08/20 07:42:41;;;;;;;13.45;8.27;;;19.70;94.30;;;;;;5035266;28;20033;-72
2023/08/20 07:45:07;;;;;;;11.90;8.68;;;19.70;93.90;;;;;;5028093;28;20034;-70
2023/08/20 07:47:33;;;;;;;17.67;8.88;;;19.90;93.70;;;;;;5024824;28;20027;-69
2023/08/20 07:49:59;;;;;;;13.43;8.43;;;20.00;93.40;;;;;;5021337;28;20034;-70
2023/08/20 07:52:24;;;;;;;13.10;8.32;;;20.20;93.50;;;;;;5028936;28;20386;-69
2023/08/20 07:54:50;;;;;;;12.65;8.23;;;20.30;93.00;;;;;;5025059;28;20037;-70
2023/08/20 07:57:15;;;;;;;11.77;7.57;;;20.60;92.60;;;;;;5026994;28;20033;-70
2023/08/20 07:59:41;;;;;;;10.98;6.20;;;20.80;92.30;;;;;;5025884;28;20440;-71
2023/08/20 08:02:06;;;;;;;11.65;5.78;;;20.90;91.40;;;;;;5039196;28;20047;-69
2023/08/20 08:04:32;;;;;;;11.48;5.38;;;21.00;90.50;;;;;;5026545;28;20458;-70
2023/08/20 08:06:57;;;;;;;12.77;5.43;;;21.20;89.40;;;;;;5025977;28;20116;-70
2023/08/20 08:09:31;;;;;;;10.27;3.83;;;21.00;87.70;;;;;;5026444;28;20038;-70
2023/08/20 08:11:57;;;;;;;9.00;3.58;;;21.10;87.40;;;;;;5030975;28;20033;-70
2023/08/20 08:14:23;;;;;;;9.15;3.65;;;21.20;87.50;;;;;;5023851;28;20040;-69
2023/08/20 08:16:49;;;;;;;9.10;4.00;;;21.50;88.50;;;;;;5033214;28;20105;-69
2023/08/20 08:19:14;;;;;;;8.38;3.60;;;21.40;85.80;;;;;;5024517;28;20378;-67
2023/08/20 08:21:42;;;;;;;8.38;3.10;;;21.50;86.50;;;;;;5034635;28;20463;-71
2023/08/20 08:24:08;;;;;;;11.27;3.20;;;21.70;86.10;;;;;;5030138;28;20141;-70
2023/08/20 08:26:35;;;;;;;9.15;2.58;;;21.90;86.40;;;;;;5029442;28;20120;-69
2023/08/20 08:29:01;;;;;;;9.38;2.03;;;22.00;82.10;;;;;;5027543;28;20036;-69
2023/08/20 08:31:27;;;;;;;9.90;2.17;;;22.00;82.20;;;;;;5027420;28;20057;-70
2023/08/20 08:33:52;;;;;;;6.05;2.22;;;22.10;82.10;;;;;;5035566;28;20067;-71
2023/08/20 08:36:18;;;;;;;11.00;2.10;;;22.20;81.00;;;;;;5025238;28;20030;-71
2023/08/20 08:38:44;;;;;;;7.28;2.33;;;22.30;81.20;;;;;;5025032;28;20056;-70
2023/08/20 08:41:12;;;;;;;9.27;2.30;;;22.60;82.00;;;;;;5022478;28;20382;-70
2023/08/20 08:43:38;;;;;;;8.93;2.00;;;22.70;81.40;;;;;;5021265;28;20348;-76
2023/08/20 08:46:07;;;;;;;5.03;2.05;;;22.60;78.80;;;;;;5034638;28;20030;-72
2023/08/20 08:48:35;;;;;;;8.73;2.13;;;22.70;78.90;;;;;;5026356;28;20061;-70
2023/08/20 08:51:02;;;;;;;7.53;1.63;;;23.00;79.20;;;;;;5018269;28;20378;-71
2023/08/20 08:53:28;;;;;;;5.47;1.92;;;22.90;78.10;;;;;;5028808;28;20397;-70
2023/08/20 08:55:54;;;;;;;7.85;2.42;;;23.00;77.60;;;;;;5037857;28;20037;-71
2023/08/20 08:58:19;;;;;;;4.03;1.60;;;23.10;79.50;;;;;;5023579;28;20049;-70
2023/08/20 09:00:45;;;;;;;8.73;2.28;;;23.20;78.00;;;;;;5033702;28;20140;-71
2023/08/20 09:03:10;;;;;;;6.25;2.20;;;23.40;78.60;;;;;;5038423;28;20037;-71
2023/08/20 09:05:49;;;;;;;8.52;2.60;;;23.50;78.30;;;;;;5029929;28;20041;-69
2023/08/20 09:08:22;;;;;;;7.65;2.63;;;23.40;77.30;;;;;;5020560;28;20030;-70
2023/08/20 09:10:51;;;;;;;5.95;1.80;;;23.20;77.00;;;;;;5022644;28;20030;-71
2023/08/20 09:13:16;;;;;;;9.10;2.03;;;23.30;77.60;;;;;;5021315;28;20451;-74
2023/08/20 09:15:42;;;;;;;10.57;2.55;;;23.60;76.00;;;;;;5028645;28;20385;-70
2023/08/20 09:18:11;;;;;;;7.18;2.45;;;23.70;76.30;;;;;;5032901;28;20393;-71
2023/08/20 09:20:37;;;;;;;8.00;2.30;;;23.70;77.80;;;;;;5025451;28;20820;-74
2023/08/20 09:23:03;;;;;;;6.55;2.17;;;23.60;77.20;;;;;;5022111;28;20373;-72
2023/08/20 09:25:29;;;;;;;6.07;2.22;;;23.80;76.60;;;;;;5022829;28;20128;-71
2023/08/20 09:27:54;;;;;;;4.95;1.83;;;23.80;76.00;;;;;;5025168;28;20536;-73
2023/08/20 09:30:20;;;;;;;9.45;2.58;;;24.00;76.90;;;;;;5026658;28;20120;-71
2023/08/20 09:33:01;;;;;;;8.45;2.50;;;24.20;74.30;;;;;;5033470;28;20032;-71
2023/08/20 09:35:27;;;;;;;9.82;2.42;;;24.30;75.90;;;;;;5037362;28;20440;-71
2023/08/20 09:38:03;;;;;;;6.57;2.40;;;24.30;73.80;;;;;;5021131;28;20094;-71
2023/08/20 09:40:29;;;;;;;9.05;2.42;;;24.30;74.80;;;;;;5026979;28;20032;-71
2023/08/20 09:42:55;;;;;;;7.80;2.40;;;24.40;74.90;;;;;;5032221;28;20037;-72
2023/08/20 09:45:21;;;;;;;8.90;2.28;;;24.50;74.40;;;;;;5019803;28;20129;-71
2023/08/20 09:47:49;;;;;;;6.10;2.40;;;24.40;73.10;;;;;;5020185;28;20160;-72
2023/08/20 09:50:17;;;;;;;10.40;2.38;;;24.40;72.80;;;;;;5027816;28;20030;-70
2023/08/20 09:53:08;;;;;;;9.27;2.58;;;24.50;73.40;;;;;;5028634;28;20519;-70
2023/08/20 09:55:35;;;;;;;8.73;2.20;;;24.50;73.80;;;;;;5029960;28;20025;-70
2023/08/20 09:58:03;;;;;;;7.53;2.33;;;24.70;73.50;;;;;;5021497;28;20159;-71
2023/08/20 10:00:28;;;;;;;7.88;2.20;;;24.90;72.30;;;;;;5026534;28;20039;-70
2023/08/20 10:02:55;;;;;;;6.72;2.13;;;25.10;73.90;;;;;;5019913;28;20041;-74
2023/08/20 10:05:23;;;;;;;7.05;2.10;;;25.00;72.10;;;;;;5030017;28;20498;-71
2023/08/20 10:07:49;;;;;;;8.00;2.65;;;25.10;71.20;;;;;;5022080;28;20622;-71
2023/08/20 10:10:16;;;;;;;7.10;2.33;;;25.40;72.00;;;;;;4983328;28;21027;-71
2023/08/20 10:12:43;;;;;;;8.13;2.50;;;25.30;71.60;;;;;;5023421;28;20488;-72
2023/08/20 10:15:11;;;;;;;6.82;2.45;;;25.50;70.60;;;;;;5015047;28;20028;-71
2023/08/20 10:17:38;;;;;;;7.55;1.98;;;25.60;70.60;;;;;;5026295;28;20124;-72
2023/08/20 10:20:05;;;;;;;10.35;2.47;;;25.40;70.60;;;;;;5024506;28;20097;-71
2023/08/20 10:22:39;;;;;;;7.78;2.20;;;25.50;70.80;;;;;;5027485;28;20144;-71
2023/08/20 10:25:10;;;;;;;6.82;2.08;;;25.40;70.70;;;;;;5024888;28;20049;-71
2023/08/20 10:27:39;;;;;;;10.68;2.40;;;25.40;69.70;;;;;;5030993;28;20114;-71
2023/08/20 10:30:16;;;;;;;9.27;1.92;;;25.50;69.90;;;;;;5016953;28;20417;-71
2023/08/20 10:32:52;;;;;;;6.05;2.05;;;25.90;69.70;;;;;;5020006;28;20374;-72
2023/08/20 10:35:46;;;;;;;7.53;2.05;;;26.10;69.40;;;;;;5016056;28;20033;-71
2023/08/20 10:38:16;;;;;;;7.97;1.98;;;26.40;68.80;;;;;;5036298;28;20076;-71
2023/08/20 10:40:52;;;;;;;7.75;2.22;;;26.20;69.20;;;;;;5027489;28;20045;-72
2023/08/20 10:43:26;;;;;;;8.77;2.13;;;26.00;68.60;;;;;;5020532;28;20137;-72
2023/08/20 10:46:05;;;;;;;7.65;2.25;;;26.40;68.80;;;;;;5025130;28;20039;-74
2023/08/20 10:48:35;;;;;;;6.90;1.63;;;26.40;69.20;;;;;;5021453;28;20029;-72
2023/08/20 10:51:11;;;;;;;7.28;2.17;;;26.10;69.30;;;;;;5026619;28;20075;-71
2023/08/20 10:53:36;;;;;;;8.60;2.50;;;26.80;68.20;;;;;;5017880;28;20049;-72
2023/08/20 10:56:08;;;;;;;9.10;2.45;;;26.90;66.90;;;;;;5022333;28;20369;-72
2023/08/20 10:58:34;;;;;;;7.85;2.00;;;26.90;66.00;;;;;;5025710;28;20041;-72
2023/08/20 11:01:20;;;;;;;6.57;2.00;;;27.20;64.60;;;;;;5024761;28;20037;-72
2023/08/20 11:03:46;;;;;;;6.35;1.85;;;27.80;64.20;;;;;;5011344;28;20034;-72
2023/08/20 11:06:12;;;;;;;5.35;1.70;;;27.20;64.50;;;;;;5013515;28;20052;-72
2023/08/20 11:08:39;;;;;;;6.03;1.80;;;27.30;64.40;;;;;;5022007;28;20037;-72
2023/08/20 11:11:05;;;;;;;7.97;2.05;;;27.40;63.60;;;;;;4991584;28;20048;-72
2023/08/20 11:13:32;;;;;;;4.43;1.83;;;28.20;63.90;;;;;;5025320;28;20387;-72
2023/08/20 11:15:58;;;;;;;9.15;1.95;;;28.80;63.00;;;;;;5024086;28;20083;-72
2023/08/20 11:18:25;;;;;;;4.90;1.63;;;28.30;61.40;;;;;;5019231;28;20473;-73
2023/08/20 11:20:51;;;;;;;8.85;2.15;;;27.90;63.00;;;;;;5018174;28;20060;-72
2023/08/20 11:23:16;;;;;;;9.50;2.13;;;27.80;62.80;;;;;;5017616;28;20478;-72
2023/08/20 11:25:43;;;;;;;6.75;1.88;;;27.40;64.70;;;;;;5024681;28;20053;-72
2023/08/20 11:28:09;;;;;;;7.25;2.40;;;26.80;64.80;;;;;;5023833;28;20732;-71
2023/08/20 11:30:35;;;;;;;7.30;1.90;;;26.70;65.90;;;;;;5015709;28;20029;-72
2023/08/20 11:33:00;;;;;;;5.18;1.42;;;26.90;65.80;;;;;;5017535;28;20148;-71
2023/08/20 11:35:26;;;;;;;6.05;2.25;;;26.50;67.30;;;;;;5019951;28;20435;-71
2023/08/20 11:37:52;;;;;;;7.00;2.15;;;26.70;67.00;;;;;;5014047;28;20192;-71
2023/08/20 11:40:20;;;;;;;5.53;1.90;;;26.70;65.50;;;;;;5029788;28;20034;-71
2023/08/20 11:42:46;;;;;;;7.60;1.95;;;27.00;65.00;;;;;;5028505;28;20026;-71
2023/08/20 11:45:11;;;;;;;6.78;2.30;;;27.60;65.30;;;;;;5027117;28;20041;-72
2023/08/20 11:47:41;;;;;;;4.85;1.80;;;28.00;62.90;;;;;;5034342;28;20045;-72
2023/08/20 11:50:09;;;;;;;5.65;2.55;;;27.50;62.60;;;;;;5024982;28;20061;-72
2023/08/20 11:52:36;;;;;;;4.82;1.73;;;27.60;64.20;;;;;;5035962;28;20030;-71
2023/08/20 11:55:03;;;;;;;10.93;2.05;;;27.70;63.90;;;;;;5027006;28;20146;-72
2023/08/20 11:57:29;;;;;;;8.50;1.80;;;27.50;64.40;;;;;;5022948;28;20088;-71
2023/08/20 11:59:55;;;;;;;8.57;2.03;;;27.20;64.80;;;;;;5016784;28;20037;-74
2023/08/20 12:02:27;;;;;;;6.80;1.98;;;27.10;65.00;;;;;;5021469;28;20087;-71
2023/08/20 12:04:55;;;;;;;4.40;2.03;;;26.60;66.00;;;;;;5023926;28;20021;-74
2023/08/20 12:07:25;;;;;;;5.20;1.85;;;26.50;66.40;;;;;;5031231;28;20037;-71
2023/08/20 12:09:50;;;;;;;8.52;2.63;;;26.50;67.20;;;;;;5029254;28;20052;-72
2023/08/20 12:12:20;;;;;;;8.98;2.10;;;26.40;66.80;;;;;;5000774;28;20057;-72
2023/08/20 12:14:46;;;;;;;6.57;2.03;;;27.10;64.70;;;;;;5034143;28;20032;-71
2023/08/20 12:17:11;;;;;;;6.68;2.00;;;27.10;64.60;;;;;;5021293;28;20386;-71
2023/08/20 12:19:37;;;;;;;6.65;2.10;;;27.30;64.10;;;;;;5030062;28;20042;-73
2023/08/20 12:22:03;;;;;;;7.82;1.70;;;28.10;62.60;;;;;;5027883;28;20053;-71
2023/08/20 12:24:29;;;;;;;4.75;1.75;;;28.90;60.50;;;;;;5029307;28;20084;-72
2023/08/20 12:26:54;;;;;;;5.18;1.70;;;28.70;59.10;;;;;;5028411;28;20474;-73
2023/08/20 12:29:20;;;;;;;8.85;2.28;;;28.70;58.80;;;;;;5026613;28;20036;-71
2023/08/20 12:31:45;;;;;;;8.48;2.25;;;29.20;59.20;;;;;;5027780;28;20072;-71
2023/08/20 12:34:11;;;;;;;5.28;1.88;;;29.30;58.00;;;;;;5023377;28;20038;-72